sensor_id;sensor_type;location;lat;lon;timestamp;noise_LAeq;noise_LA_min;noise_LA_max;noise_LA01;noise_LA95
67320;Laerm;57665;51.436;5.978;2023-06-14T00:00:18;39.80;37.41;47.24;;
67320;Laerm;57665;51.436;5.978;2023-06-14T00:00:31;38.58;37.33;42.94;;
67320;Laerm;57665;51.436;5.978;2023-06-14T00:00:41;38.44;37.30;39.49;;
67320;Laerm;57665;51.436;5.978;2023-06-14T00:00:54;38.60;37.45;39.85;;
67320;Laerm;57665;51.436;5.978;2023-06-14T00:01:06;38.56;37.29;39.85;;
67320;Laerm;57665;51.436;5.978;2023-06-14T00:01:17;38.55;36.94;39.67;;
67320;Laerm;57665;51.436;5.978;2023-06-14T00:01:30;38.48;37.27;39.51;;
67320;Laerm;57665;51.436;5.978;2023-06-14T00:01:42;38.68;37.52;39.96;;
67320;Laerm;57665;51.436;5.978;2023-06-14T00:01:55;38.51;37.20;39.68;;
67320;Laerm;57665;51.436;5.978;2023-06-14T00:02:11;38.53;37.21;39.63;;
67320;Laerm;57665;51.436;5.978;2023-06-14T00:02:22;38.65;37.55;39.94;;
67320;Laerm;57665;51.436;5.978;2023-06-14T00:02:39;38.75;37.70;40.09;;
67320;Laerm;57665;51.436;5.978;2023-06-14T00:02:49;38.72;37.57;39.71;;
67320;Laerm;57665;51.436;5.978;2023-06-14T00:02:59;38.77;37.71;39.68;;
67320;Laerm;57665;51.436;5.978;2023-06-14T00:03:17;40.71;37.78;46.63;;
67320;Laerm;57665;51.436;5.978;2023-06-14T00:03:28;66.10;44.33;76.73;;
67320;Laerm;57665;51.436;5.978;2023-06-14T00:03:47;66.61;62.59;70.72;;
67320;Laerm;57665;51.436;5.978;2023-06-14T00:04:00;53.32;38.42;68.16;;
67320;Laerm;57665;51.436;5.978;2023-06-14T00:04:26;39.89;38.23;41.65;;
67320;Laerm;57665;51.436;5.978;2023-06-14T00:04:36;65.31;38.15;80.69;;
67320;Laerm;57665;51.436;5.978;2023-06-14T00:05:01;66.74;40.48;79.39;;
67320;Laerm;57665;51.436;5.978;2023-06-14T00:05:11;39.20;37.27;42.05;;
67320;Laerm;57665;51.436;5.978;2023-06-14T00:05:36;38.63;37.52;39.98;;
67320;Laerm;57665;51.436;5.978;2023-06-14T00:05:52;38.59;37.36;39.84;;
67320;Laerm;57665;51.436;5.978;2023-06-14T00:06:06;38.43;37.39;39.41;;
67320;Laerm;57665;51.436;5.978;2023-06-14T00:06:16;38.55;37.44;39.61;;
67320;Laerm;57665;51.436;5.978;2023-06-14T00:06:28;38.62;37.20;39.88;;
67320;Laerm;57665;51.436;5.978;2023-06-14T00:06:44;38.71;37.32;39.95;;
67320;Laerm;57665;51.436;5.978;2023-06-14T00:06:55;38.63;37.11;39.76;;
67320;Laerm;57665;51.436;5.978;2023-06-14T00:07:06;38.79;37.74;39.85;;
67320;Laerm;57665;51.436;5.978;2023-06-14T00:07:37;46.54;37.12;60.08;;
67320;Laerm;57665;51.436;5.978;2023-06-14T00:07:57;68.62;40.50;78.01;;
67320;Laerm;57665;51.436;5.978;2023-06-14T00:08:10;39.60;38.22;41.74;;
67320;Laerm;57665;51.436;5.978;2023-06-14T00:08:20;39.53;38.40;40.97;;
67320;Laerm;57665;51.436;5.978;2023-06-14T00:08:51;38.94;37.18;41.04;;
67320;Laerm;57665;51.436;5.978;2023-06-14T00:09:01;38.70;37.57;39.66;;
67320;Laerm;57665;51.436;5.978;2023-06-14T00:09:14;38.66;37.63;39.86;;
67320;Laerm;57665;51.436;5.978;2023-06-14T00:09:27;38.56;37.73;39.56;;
67320;Laerm;57665;51.436;5.978;2023-06-14T00:09:57;38.58;37.20;39.89;;
67320;Laerm;57665;51.436;5.978;2023-06-14T00:10:17;38.55;37.57;39.83;;
67320;Laerm;57665;51.436;5.978;2023-06-14T00:10:27;38.56;37.48;40.09;;
67320;Laerm;57665;51.436;5.978;2023-06-14T00:10:41;38.48;37.31;39.62;;
67320;Laerm;57665;51.436;5.978;2023-06-14T00:10:52;38.50;36.75;39.70;;
67320;Laerm;57665;51.436;5.978;2023-06-14T00:11:08;38.54;37.44;39.58;;
67320;Laerm;57665;51.436;5.978;2023-06-14T00:11:18;38.57;37.49;39.89;;
67320;Laerm;57665;51.436;5.978;2023-06-14T00:11:28;38.66;36.99;39.87;;
67320;Laerm;57665;51.436;5.978;2023-06-14T00:11:40;38.47;37.35;39.63;;
67320;Laerm;57665;51.436;5.978;2023-06-14T00:11:51;38.50;37.46;39.64;;
67320;Laerm;57665;51.436;5.978;2023-06-14T00:12:01;38.58;37.22;39.70;;
67320;Laerm;57665;51.436;5.978;2023-06-14T00:12:20;38.59;37.37;39.72;;
67320;Laerm;57665;51.436;5.978;2023-06-14T00:12:30;38.66;37.32;39.84;;
67320;Laerm;57665;51.436;5.978;2023-06-14T00:12:41;38.51;37.15;39.60;;
67320;Laerm;57665;51.436;5.978;2023-06-14T00:12:51;38.55;37.30;41.27;;
67320;Laerm;57665;51.436;5.978;2023-06-14T00:13:02;38.52;37.08;39.83;;
67320;Laerm;57665;51.436;5.978;2023-06-14T00:13:12;38.47;37.21;39.60;;
67320;Laerm;57665;51.436;5.978;2023-06-14T00:13:25;38.56;37.21;39.72;;
67320;Laerm;57665;51.436;5.978;2023-06-14T00:13:38;38.72;37.58;39.96;;
67320;Laerm;57665;51.436;5.978;2023-06-14T00:13:48;38.63;37.33;40.24;;
67320;Laerm;57665;51.436;5.978;2023-06-14T00:14:04;38.48;37.47;39.55;;
67320;Laerm;57665;51.436;5.978;2023-06-14T00:14:17;38.49;37.22;39.61;;
67320;Laerm;57665;51.436;5.978;2023-06-14T00:14:28;38.57;37.53;39.66;;
67320;Laerm;57665;51.436;5.978;2023-06-14T00:14:41;38.52;37.50;39.63;;
67320;Laerm;57665;51.436;5.978;2023-06-14T00:14:51;38.74;37.58;40.18;;
67320;Laerm;57665;51.436;5.978;2023-06-14T00:15:02;38.58;37.24;39.50;;
67320;Laerm;57665;51.436;5.978;2023-06-14T00:15:15;38.76;37.49;40.02;;
67320;Laerm;57665;51.436;5.978;2023-06-14T00:15:25;38.68;37.51;39.84;;
67320;Laerm;57665;51.436;5.978;2023-06-14T00:15:36;38.63;37.42;39.51;;
67320;Laerm;57665;51.436;5.978;2023-06-14T00:16:15;38.55;37.20;39.95;;
67320;Laerm;57665;51.436;5.978;2023-06-14T00:16:36;38.65;37.57;39.62;;
67320;Laerm;57665;51.436;5.978;2023-06-14T00:16:47;38.60;37.03;39.69;;
67320;Laerm;57665;51.436;5.978;2023-06-14T00:17:09;38.61;37.06;39.79;;
67320;Laerm;57665;51.436;5.978;2023-06-14T00:17:35;38.60;37.48;39.65;;
67320;Laerm;57665;51.436;5.978;2023-06-14T00:17:46;38.58;37.20;39.83;;
67320;Laerm;57665;51.436;5.978;2023-06-14T00:18:09;38.65;37.11;39.66;;
67320;Laerm;57665;51.436;5.978;2023-06-14T00:18:22;38.70;37.55;40.14;;
67320;Laerm;57665;51.436;5.978;2023-06-14T00:18:43;38.66;37.30;39.90;;
67320;Laerm;57665;51.436;5.978;2023-06-14T00:18:53;38.59;37.28;39.79;;
67320;Laerm;57665;51.436;5.978;2023-06-14T00:19:03;38.53;37.40;40.23;;
67320;Laerm;57665;51.436;5.978;2023-06-14T00:19:20;38.50;37.14;39.59;;
67320;Laerm;57665;51.436;5.978;2023-06-14T00:19:31;38.59;37.20;39.74;;
67320;Laerm;57665;51.436;5.978;2023-06-14T00:19:47;38.60;37.43;39.80;;
67320;Laerm;57665;51.436;5.978;2023-06-14T00:20:06;38.57;37.17;39.90;;
67320;Laerm;57665;51.436;5.978;2023-06-14T00:20:23;38.53;36.87;39.78;;
67320;Laerm;57665;51.436;5.978;2023-06-14T00:20:33;38.64;37.19;39.96;;
67320;Laerm;57665;51.436;5.978;2023-06-14T00:20:44;38.57;37.36;39.84;;
67320;Laerm;57665;51.436;5.978;2023-06-14T00:21:03;38.59;37.52;39.77;;
67320;Laerm;57665;51.436;5.978;2023-06-14T00:21:14;38.52;36.90;39.71;;
67320;Laerm;57665;51.436;5.978;2023-06-14T00:21:37;38.57;37.44;39.60;;
67320;Laerm;57665;51.436;5.978;2023-06-14T00:21:47;38.65;37.54;39.72;;
67320;Laerm;57665;51.436;5.978;2023-06-14T00:22:04;38.66;37.55;39.70;;
67320;Laerm;57665;51.436;5.978;2023-06-14T00:22:14;38.62;37.36;40.14;;
67320;Laerm;57665;51.436;5.978;2023-06-14T00:22:24;38.60;37.43;39.67;;
67320;Laerm;57665;51.436;5.978;2023-06-14T00:22:35;38.57;37.42;39.87;;
67320;Laerm;57665;51.436;5.978;2023-06-14T00:22:49;38.71;37.59;39.90;;
67320;Laerm;57665;51.436;5.978;2023-06-14T00:23:00;38.74;37.39;39.70;;
67320;Laerm;57665;51.436;5.978;2023-06-14T00:23:33;38.62;37.40;40.56;;
67320;Laerm;57665;51.436;5.978;2023-06-14T00:23:49;38.73;37.40;39.95;;
67320;Laerm;57665;51.436;5.978;2023-06-14T00:24:00;38.58;37.41;39.71;;
67320;Laerm;57665;51.436;5.978;2023-06-14T00:24:10;38.71;37.48;39.59;;
67320;Laerm;57665;51.436;5.978;2023-06-14T00:24:25;38.72;37.48;40.33;;
67320;Laerm;57665;51.436;5.978;2023-06-14T00:24:35;38.81;37.49;40.03;;
67320;Laerm;57665;51.436;5.978;2023-06-14T00:24:45;38.76;37.72;39.85;;
67320;Laerm;57665;51.436;5.978;2023-06-14T00:24:58;38.87;37.49;40.02;;
67320;Laerm;57665;51.436;5.978;2023-06-14T00:25:09;38.93;37.49;40.05;;
67320;Laerm;57665;51.436;5.978;2023-06-14T00:25:19;38.87;37.83;39.78;;
67320;Laerm;57665;51.436;5.978;2023-06-14T00:25:30;39.19;37.94;40.91;;
67320;Laerm;57665;51.436;5.978;2023-06-14T00:25:43;62.20;39.34;72.28;;
67320;Laerm;57665;51.436;5.978;2023-06-14T00:26:03;68.27;65.42;71.83;;
67320;Laerm;57665;51.436;5.978;2023-06-14T00:26:13;66.97;43.01;72.99;;
67320;Laerm;57665;51.436;5.978;2023-06-14T00:26:24;40.64;38.62;45.08;;
67320;Laerm;57665;51.436;5.978;2023-06-14T00:27:12;39.23;37.52;41.55;;
67320;Laerm;57665;51.436;5.978;2023-06-14T00:27:23;38.82;37.43;40.48;;
67320;Laerm;57665;51.436;5.978;2023-06-14T00:27:48;38.80;37.80;39.90;;
67320;Laerm;57665;51.436;5.978;2023-06-14T00:27:59;38.72;37.56;40.20;;
67320;Laerm;57665;51.436;5.978;2023-06-14T00:28:15;38.69;37.52;40.03;;
67320;Laerm;57665;51.436;5.978;2023-06-14T00:28:28;38.70;37.16;39.85;;
67320;Laerm;57665;51.436;5.978;2023-06-14T00:28:44;38.64;37.67;39.57;;
67320;Laerm;57665;51.436;5.978;2023-06-14T00:28:54;38.65;37.42;39.56;;
67320;Laerm;57665;51.436;5.978;2023-06-14T00:29:06;38.64;37.28;39.87;;
67320;Laerm;57665;51.436;5.978;2023-06-14T00:29:21;38.70;37.26;39.91;;
67320;Laerm;57665;51.436;5.978;2023-06-14T00:29:31;38.66;37.52;40.30;;
67320;Laerm;57665;51.436;5.978;2023-06-14T00:29:42;38.65;37.63;39.68;;
67320;Laerm;57665;51.436;5.978;2023-06-14T00:29:52;38.69;37.57;40.08;;
67320;Laerm;57665;51.436;5.978;2023-06-14T00:30:17;38.71;37.36;39.76;;
67320;Laerm;57665;51.436;5.978;2023-06-14T00:30:27;38.78;37.45;40.25;;
67320;Laerm;57665;51.436;5.978;2023-06-14T00:30:55;38.76;37.46;39.90;;
67320;Laerm;57665;51.436;5.978;2023-06-14T00:31:05;39.28;37.75;45.74;;
67320;Laerm;57665;51.436;5.978;2023-06-14T00:31:20;38.71;37.75;39.82;;
67320;Laerm;57665;51.436;5.978;2023-06-14T00:31:30;38.72;37.41;39.83;;
67320;Laerm;57665;51.436;5.978;2023-06-14T00:31:49;38.68;37.53;39.67;;
67320;Laerm;57665;51.436;5.978;2023-06-14T00:31:59;38.81;37.51;40.04;;
67320;Laerm;57665;51.436;5.978;2023-06-14T00:32:19;38.95;37.82;40.33;;
67320;Laerm;57665;51.436;5.978;2023-06-14T00:32:32;38.82;37.57;39.97;;
67320;Laerm;57665;51.436;5.978;2023-06-14T00:32:49;38.86;37.38;40.20;;
67320;Laerm;57665;51.436;5.978;2023-06-14T00:33:01;38.66;37.31;39.67;;
67320;Laerm;57665;51.436;5.978;2023-06-14T00:33:17;38.70;37.59;39.76;;
67320;Laerm;57665;51.436;5.978;2023-06-14T00:33:27;38.59;37.39;39.67;;
67320;Laerm;57665;51.436;5.978;2023-06-14T00:33:50;38.70;37.51;39.56;;
67320;Laerm;57665;51.436;5.978;2023-06-14T00:34:00;38.56;37.19;39.87;;
67320;Laerm;57665;51.436;5.978;2023-06-14T00:34:20;38.55;37.46;39.63;;
67320;Laerm;57665;51.436;5.978;2023-06-14T00:34:30;38.65;37.50;39.73;;
67320;Laerm;57665;51.436;5.978;2023-06-14T00:34:49;38.67;37.55;39.99;;
67320;Laerm;57665;51.436;5.978;2023-06-14T00:35:00;38.68;37.30;40.12;;
67320;Laerm;57665;51.436;5.978;2023-06-14T00:35:21;38.65;37.72;39.66;;
67320;Laerm;57665;51.436;5.978;2023-06-14T00:35:32;38.55;37.33;39.83;;
67320;Laerm;57665;51.436;5.978;2023-06-14T00:35:42;38.62;37.42;39.78;;
67320;Laerm;57665;51.436;5.978;2023-06-14T00:36:03;38.56;37.44;39.87;;
67320;Laerm;57665;51.436;5.978;2023-06-14T00:36:14;38.56;37.62;39.49;;
67320;Laerm;57665;51.436;5.978;2023-06-14T00:36:39;38.69;37.43;39.97;;
67320;Laerm;57665;51.436;5.978;2023-06-14T00:36:50;38.58;37.39;39.66;;
67320;Laerm;57665;51.436;5.978;2023-06-14T00:37:00;38.58;37.19;39.68;;
67320;Laerm;57665;51.436;5.978;2023-06-14T00:37:11;38.49;37.45;39.78;;
67320;Laerm;57665;51.436;5.978;2023-06-14T00:37:21;38.61;37.22;39.65;;
67320;Laerm;57665;51.436;5.978;2023-06-14T00:37:37;38.49;37.52;39.94;;
67320;Laerm;57665;51.436;5.978;2023-06-14T00:37:47;38.60;37.43;39.68;;
67320;Laerm;57665;51.436;5.978;2023-06-14T00:37:58;38.51;37.08;39.51;;
67320;Laerm;57665;51.436;5.978;2023-06-14T00:38:15;38.60;37.50;39.62;;
67320;Laerm;57665;51.436;5.978;2023-06-14T00:38:25;38.55;37.40;39.84;;
67320;Laerm;57665;51.436;5.978;2023-06-14T00:38:44;38.51;37.29;39.63;;
67320;Laerm;57665;51.436;5.978;2023-06-14T00:38:57;38.62;37.34;39.93;;
67320;Laerm;57665;51.436;5.978;2023-06-14T00:39:07;38.42;37.22;39.59;;
67320;Laerm;57665;51.436;5.978;2023-06-14T00:39:25;38.54;37.58;39.53;;
67320;Laerm;57665;51.436;5.978;2023-06-14T00:39:35;38.70;37.53;40.39;;
67320;Laerm;57665;51.436;5.978;2023-06-14T00:39:45;38.58;37.49;39.83;;
67320;Laerm;57665;51.436;5.978;2023-06-14T00:40:08;38.56;37.20;39.64;;
67320;Laerm;57665;51.436;5.978;2023-06-14T00:40:18;38.60;37.26;39.64;;
67320;Laerm;57665;51.436;5.978;2023-06-14T00:40:28;38.64;37.43;39.80;;
67320;Laerm;57665;51.436;5.978;2023-06-14T00:40:39;38.72;37.62;39.82;;
67320;Laerm;57665;51.436;5.978;2023-06-14T00:40:49;38.53;37.46;39.68;;
67320;Laerm;57665;51.436;5.978;2023-06-14T00:40:59;38.51;37.32;39.67;;
67320;Laerm;57665;51.436;5.978;2023-06-14T00:41:10;38.65;37.54;39.68;;
67320;Laerm;57665;51.436;5.978;2023-06-14T00:41:20;38.63;37.69;39.69;;
67320;Laerm;57665;51.436;5.978;2023-06-14T00:41:30;38.63;37.43;39.79;;
67320;Laerm;57665;51.436;5.978;2023-06-14T00:41:44;38.56;37.23;39.75;;
67320;Laerm;57665;51.436;5.978;2023-06-14T00:41:54;38.67;37.46;39.82;;
67320;Laerm;57665;51.436;5.978;2023-06-14T00:42:04;38.61;37.53;39.72;;
67320;Laerm;57665;51.436;5.978;2023-06-14T00:42:25;38.67;37.39;39.80;;
67320;Laerm;57665;51.436;5.978;2023-06-14T00:42:35;38.69;37.33;39.91;;
67320;Laerm;57665;51.436;5.978;2023-06-14T00:42:45;38.65;37.31;40.16;;
67320;Laerm;57665;51.436;5.978;2023-06-14T00:42:56;38.67;37.48;39.64;;
67320;Laerm;57665;51.436;5.978;2023-06-14T00:43:06;38.68;37.51;39.93;;
67320;Laerm;57665;51.436;5.978;2023-06-14T00:43:16;38.60;37.18;39.67;;
67320;Laerm;57665;51.436;5.978;2023-06-14T00:43:32;38.66;37.62;39.60;;
67320;Laerm;57665;51.436;5.978;2023-06-14T00:43:49;38.70;37.06;39.82;;
67320;Laerm;57665;51.436;5.978;2023-06-14T00:44:05;38.70;37.52;39.74;;
67320;Laerm;57665;51.436;5.978;2023-06-14T00:44:15;38.72;37.40;40.88;;
67320;Laerm;57665;51.436;5.978;2023-06-14T00:44:26;38.66;37.29;39.87;;
67320;Laerm;57665;51.436;5.978;2023-06-14T00:44:36;38.68;37.65;39.83;;
67320;Laerm;57665;51.436;5.978;2023-06-14T00:44:46;38.67;37.46;39.96;;
67320;Laerm;57665;51.436;5.978;2023-06-14T00:44:57;38.69;37.61;40.12;;
67320;Laerm;57665;51.436;5.978;2023-06-14T00:45:07;38.77;37.63;39.92;;
67320;Laerm;57665;51.436;5.978;2023-06-14T00:45:18;38.89;37.81;40.11;;
67320;Laerm;57665;51.436;5.978;2023-06-14T00:45:28;38.77;37.64;39.78;;
67320;Laerm;57665;51.436;5.978;2023-06-14T00:45:38;38.77;37.62;40.02;;
67320;Laerm;57665;51.436;5.978;2023-06-14T00:45:49;38.72;37.74;39.83;;
67320;Laerm;57665;51.436;5.978;2023-06-14T00:46:01;38.67;37.46;40.07;;
67320;Laerm;57665;51.436;5.978;2023-06-14T00:46:11;38.69;37.64;39.87;;
67320;Laerm;57665;51.436;5.978;2023-06-14T00:46:21;38.75;37.57;39.72;;
67320;Laerm;57665;51.436;5.978;2023-06-14T00:46:35;38.64;37.36;39.80;;
67320;Laerm;57665;51.436;5.978;2023-06-14T00:46:45;38.65;37.69;39.72;;
67320;Laerm;57665;51.436;5.978;2023-06-14T00:46:58;38.60;37.40;39.63;;
67320;Laerm;57665;51.436;5.978;2023-06-14T00:47:11;38.67;37.54;39.75;;
67320;Laerm;57665;51.436;5.978;2023-06-14T00:47:43;38.63;37.52;39.69;;
67320;Laerm;57665;51.436;5.978;2023-06-14T00:47:52;38.56;37.23;40.26;;
67320;Laerm;57665;51.436;5.978;2023-06-14T00:48:05;38.69;37.43;39.97;;
67320;Laerm;57665;51.436;5.978;2023-06-14T00:48:16;38.57;37.55;39.67;;
67320;Laerm;57665;51.436;5.978;2023-06-14T00:48:27;38.55;37.48;39.55;;
67320;Laerm;57665;51.436;5.978;2023-06-14T00:48:44;38.59;37.37;39.66;;
67320;Laerm;57665;51.436;5.978;2023-06-14T00:48:54;38.63;37.31;39.85;;
67320;Laerm;57665;51.436;5.978;2023-06-14T00:49:06;38.58;37.40;39.71;;
67320;Laerm;57665;51.436;5.978;2023-06-14T00:49:17;38.72;37.62;40.01;;
67320;Laerm;57665;51.436;5.978;2023-06-14T00:49:27;38.52;37.47;39.60;;
67320;Laerm;57665;51.436;5.978;2023-06-14T00:49:39;38.55;37.49;39.89;;
67320;Laerm;57665;51.436;5.978;2023-06-14T00:49:49;38.63;37.30;39.68;;
67320;Laerm;57665;51.436;5.978;2023-06-14T00:50:00;38.68;37.01;39.73;;
67320;Laerm;57665;51.436;5.978;2023-06-14T00:50:45;38.78;37.55;39.89;;
67320;Laerm;57665;51.436;5.978;2023-06-14T00:50:55;38.84;37.83;42.54;;
67320;Laerm;57665;51.436;5.978;2023-06-14T00:51:07;39.14;37.74;40.88;;
67320;Laerm;57665;51.436;5.978;2023-06-14T00:51:17;61.50;39.30;71.73;;
67320;Laerm;57665;51.436;5.978;2023-06-14T00:51:32;70.27;65.92;75.65;;
67320;Laerm;57665;51.436;5.978;2023-06-14T00:51:42;72.26;66.21;78.66;;
67320;Laerm;57665;51.436;5.978;2023-06-14T00:51:52;57.52;40.45;69.27;;
67320;Laerm;57665;51.436;5.978;2023-06-14T00:52:22;40.07;38.45;41.96;;
67320;Laerm;57665;51.436;5.978;2023-06-14T00:52:39;39.26;38.22;40.41;;
67320;Laerm;57665;51.436;5.978;2023-06-14T00:52:53;39.04;37.59;40.36;;
67320;Laerm;57665;51.436;5.978;2023-06-14T00:53:03;38.96;37.78;40.18;;
67320;Laerm;57665;51.436;5.978;2023-06-14T00:53:23;38.86;37.78;40.39;;
67320;Laerm;57665;51.436;5.978;2023-06-14T00:53:35;38.84;37.35;40.05;;
67320;Laerm;57665;51.436;5.978;2023-06-14T00:53:45;38.80;37.70;39.80;;
67320;Laerm;57665;51.436;5.978;2023-06-14T00:54:02;38.82;37.73;39.87;;
67320;Laerm;57665;51.436;5.978;2023-06-14T00:54:15;38.77;37.73;39.90;;
67320;Laerm;57665;51.436;5.978;2023-06-14T00:54:25;38.69;37.65;40.19;;
67320;Laerm;57665;51.436;5.978;2023-06-14T00:54:35;38.77;37.55;39.84;;
67320;Laerm;57665;51.436;5.978;2023-06-14T00:54:49;38.81;37.53;39.90;;
67320;Laerm;57665;51.436;5.978;2023-06-14T00:54:59;38.77;37.66;39.62;;
67320;Laerm;57665;51.436;5.978;2023-06-14T00:55:16;38.80;37.11;40.13;;
67320;Laerm;57665;51.436;5.978;2023-06-14T00:55:27;38.76;37.15;40.12;;
67320;Laerm;57665;51.436;5.978;2023-06-14T00:55:37;38.70;37.55;39.58;;
67320;Laerm;57665;51.436;5.978;2023-06-14T00:55:50;38.66;37.45;39.69;;
67320;Laerm;57665;51.436;5.978;2023-06-14T00:56:01;38.69;37.58;39.82;;
67320;Laerm;57665;51.436;5.978;2023-06-14T00:56:11;38.78;37.70;40.17;;
67320;Laerm;57665;51.436;5.978;2023-06-14T00:56:23;38.74;37.18;39.85;;
67320;Laerm;57665;51.436;5.978;2023-06-14T00:56:37;38.75;37.39;39.99;;
67320;Laerm;57665;51.436;5.978;2023-06-14T00:56:48;38.83;37.68;39.89;;
67320;Laerm;57665;51.436;5.978;2023-06-14T00:57:05;38.81;37.58;39.78;;
67320;Laerm;57665;51.436;5.978;2023-06-14T00:57:17;38.86;37.78;39.82;;
67320;Laerm;57665;51.436;5.978;2023-06-14T00:57:27;38.88;37.60;40.06;;
67320;Laerm;57665;51.436;5.978;2023-06-14T00:57:44;38.84;37.69;39.94;;
67320;Laerm;57665;51.436;5.978;2023-06-14T00:57:55;38.74;37.77;39.87;;
67320;Laerm;57665;51.436;5.978;2023-06-14T00:58:18;38.78;37.53;40.10;;
67320;Laerm;57665;51.436;5.978;2023-06-14T00:58:28;38.89;37.34;40.23;;
67320;Laerm;57665;51.436;5.978;2023-06-14T00:58:38;38.90;37.67;40.28;;
67320;Laerm;57665;51.436;5.978;2023-06-14T00:58:49;38.80;37.83;39.79;;
67320;Laerm;57665;51.436;5.978;2023-06-14T00:59:03;38.75;37.75;39.74;;
67320;Laerm;57665;51.436;5.978;2023-06-14T00:59:13;38.77;37.45;40.18;;
67320;Laerm;57665;51.436;5.978;2023-06-14T00:59:27;38.76;37.67;40.00;;
67320;Laerm;57665;51.436;5.978;2023-06-14T00:59:39;38.63;37.38;39.62;;
67320;Laerm;57665;51.436;5.978;2023-06-14T00:59:51;38.63;37.43;39.67;;
67320;Laerm;57665;51.436;5.978;2023-06-14T01:00:02;38.68;37.44;39.60;;
67320;Laerm;57665;51.436;5.978;2023-06-14T01:00:12;40.87;37.68;47.68;;
67320;Laerm;57665;51.436;5.978;2023-06-14T01:00:22;38.66;37.63;39.81;;
67320;Laerm;57665;51.436;5.978;2023-06-14T01:00:33;38.78;37.68;39.85;;
67320;Laerm;57665;51.436;5.978;2023-06-14T01:00:43;38.78;37.95;39.77;;
67320;Laerm;57665;51.436;5.978;2023-06-14T01:01:03;38.71;37.26;39.90;;
67320;Laerm;57665;51.436;5.978;2023-06-14T01:01:14;38.74;37.71;39.74;;
67320;Laerm;57665;51.436;5.978;2023-06-14T01:01:27;38.68;37.51;39.56;;
67320;Laerm;57665;51.436;5.978;2023-06-14T01:01:41;38.77;37.65;40.03;;
67320;Laerm;57665;51.436;5.978;2023-06-14T01:01:51;38.74;37.52;39.64;;
67320;Laerm;57665;51.436;5.978;2023-06-14T01:02:02;38.64;37.38;39.78;;
67320;Laerm;57665;51.436;5.978;2023-06-14T01:02:12;38.73;37.61;39.81;;
67320;Laerm;57665;51.436;5.978;2023-06-14T01:02:24;38.65;37.73;39.87;;
67320;Laerm;57665;51.436;5.978;2023-06-14T01:02:41;38.63;37.54;39.72;;
67320;Laerm;57665;51.436;5.978;2023-06-14T01:02:51;38.68;37.56;39.95;;
67320;Laerm;57665;51.436;5.978;2023-06-14T01:03:10;38.81;37.44;39.89;;
67320;Laerm;57665;51.436;5.978;2023-06-14T01:03:22;38.82;37.61;40.05;;
67320;Laerm;57665;51.436;5.978;2023-06-14T01:03:33;38.68;37.73;39.86;;
67320;Laerm;57665;51.436;5.978;2023-06-14T01:03:47;38.72;37.64;39.85;;
67320;Laerm;57665;51.436;5.978;2023-06-14T01:04:01;38.74;37.80;41.11;;
67320;Laerm;57665;51.436;5.978;2023-06-14T01:04:11;38.80;37.53;40.00;;
67320;Laerm;57665;51.436;5.978;2023-06-14T01:04:43;38.79;37.52;40.10;;
67320;Laerm;57665;51.436;5.978;2023-06-14T01:04:58;38.87;37.70;39.97;;
67320;Laerm;57665;51.436;5.978;2023-06-14T01:05:14;38.77;37.29;39.89;;
67320;Laerm;57665;51.436;5.978;2023-06-14T01:05:25;38.74;37.74;40.34;;
67320;Laerm;57665;51.436;5.978;2023-06-14T01:05:38;38.77;37.39;40.05;;
67320;Laerm;57665;51.436;5.978;2023-06-14T01:06:45;38.80;37.44;40.35;;
67320;Laerm;57665;51.436;5.978;2023-06-14T01:08:00;38.77;37.70;39.88;;
67320;Laerm;57665;51.436;5.978;2023-06-14T01:08:24;38.81;37.66;39.98;;
67320;Laerm;57665;51.436;5.978;2023-06-14T01:08:50;38.92;37.62;40.01;;
67320;Laerm;57665;51.436;5.978;2023-06-14T01:09:05;38.70;37.59;39.87;;
67320;Laerm;57665;51.436;5.978;2023-06-14T01:09:36;38.71;37.44;39.74;;
67320;Laerm;57665;51.436;5.978;2023-06-14T01:09:52;38.74;37.56;40.02;;
67320;Laerm;57665;51.436;5.978;2023-06-14T01:10:31;38.84;37.44;40.09;;
67320;Laerm;57665;51.436;5.978;2023-06-14T01:11:05;60.63;38.44;72.92;;
67320;Laerm;57665;51.436;5.978;2023-06-14T01:11:25;66.09;60.92;73.56;;
67320;Laerm;57665;51.436;5.978;2023-06-14T01:13:21;38.90;37.46;40.03;;
67320;Laerm;57665;51.436;5.978;2023-06-14T01:13:34;38.75;37.46;39.87;;
67320;Laerm;57665;51.436;5.978;2023-06-14T01:13:45;38.92;37.84;40.01;;
67320;Laerm;57665;51.436;5.978;2023-06-14T01:13:56;38.75;37.46;39.93;;
67320;Laerm;57665;51.436;5.978;2023-06-14T01:14:07;38.69;37.70;39.73;;
67320;Laerm;57665;51.436;5.978;2023-06-14T01:14:17;38.80;37.57;39.97;;
67320;Laerm;57665;51.436;5.978;2023-06-14T01:14:46;38.80;37.60;39.92;;
67320;Laerm;57665;51.436;5.978;2023-06-14T01:14:58;38.81;37.66;39.94;;
67320;Laerm;57665;51.436;5.978;2023-06-14T01:15:24;38.82;37.64;39.96;;
67320;Laerm;57665;51.436;5.978;2023-06-14T01:15:36;38.93;37.52;39.95;;
67320;Laerm;57665;51.436;5.978;2023-06-14T01:15:56;38.76;37.73;39.89;;
67320;Laerm;57665;51.436;5.978;2023-06-14T01:16:07;39.24;37.70;42.37;;
67320;Laerm;57665;51.436;5.978;2023-06-14T01:16:17;43.73;40.17;48.76;;
67320;Laerm;57665;51.436;5.978;2023-06-14T01:16:32;39.58;37.77;41.39;;
67320;Laerm;57665;51.436;5.978;2023-06-14T01:16:46;38.88;37.64;39.96;;
67320;Laerm;57665;51.436;5.978;2023-06-14T01:16:57;38.75;37.47;39.86;;
67320;Laerm;57665;51.436;5.978;2023-06-14T01:17:10;38.65;37.26;39.67;;
67320;Laerm;57665;51.436;5.978;2023-06-14T01:17:26;38.77;37.57;39.81;;
67320;Laerm;57665;51.436;5.978;2023-06-14T01:17:37;38.73;37.44;39.94;;
67320;Laerm;57665;51.436;5.978;2023-06-14T01:17:51;38.83;37.62;39.93;;
67320;Laerm;57665;51.436;5.978;2023-06-14T01:18:02;38.74;37.64;39.89;;
67320;Laerm;57665;51.436;5.978;2023-06-14T01:18:15;38.72;37.65;40.22;;
67320;Laerm;57665;51.436;5.978;2023-06-14T01:18:31;38.84;37.67;40.23;;
67320;Laerm;57665;51.436;5.978;2023-06-14T01:18:42;38.81;37.63;39.87;;
67320;Laerm;57665;51.436;5.978;2023-06-14T01:19:32;38.77;37.27;40.04;;
67320;Laerm;57665;51.436;5.978;2023-06-14T01:19:45;38.83;37.12;40.14;;
67320;Laerm;57665;51.436;5.978;2023-06-14T01:20:39;38.81;37.56;40.27;;
67320;Laerm;57665;51.436;5.978;2023-06-14T01:20:49;38.89;37.51;40.12;;
67320;Laerm;57665;51.436;5.978;2023-06-14T01:21:02;38.87;37.64;40.12;;
67320;Laerm;57665;51.436;5.978;2023-06-14T01:21:25;38.88;37.66;40.26;;
67320;Laerm;57665;51.436;5.978;2023-06-14T01:21:40;39.04;37.53;40.40;;
67320;Laerm;57665;51.436;5.978;2023-06-14T01:21:51;39.12;37.96;41.82;;
67320;Laerm;57665;51.436;5.978;2023-06-14T01:22:11;39.18;38.25;40.24;;
67320;Laerm;57665;51.436;5.978;2023-06-14T01:22:22;39.01;37.92;42.97;;
67320;Laerm;57665;51.436;5.978;2023-06-14T01:22:42;38.95;37.83;39.90;;
67320;Laerm;57665;51.436;5.978;2023-06-14T01:22:53;38.97;37.86;40.12;;
67320;Laerm;57665;51.436;5.978;2023-06-14T01:23:03;38.80;37.53;40.19;;
67320;Laerm;57665;51.436;5.978;2023-06-14T01:23:17;38.83;37.75;40.00;;
67320;Laerm;57665;51.436;5.978;2023-06-14T01:23:27;39.02;37.78;40.38;;
67320;Laerm;57665;51.436;5.978;2023-06-14T01:23:51;38.98;37.65;40.31;;
67320;Laerm;57665;51.436;5.978;2023-06-14T01:24:05;39.29;38.24;40.59;;
67320;Laerm;57665;51.436;5.978;2023-06-14T01:25:02;71.52;38.54;80.61;;